Time;durP1;ratioP1;P1;durP2;ratioP2;P2;SDS_P1;SDS_P2;PMS_P1;PMS_P2;Temp;Humidity;BMP_temperature;BMP_pressure;BME280_temperature;BME280_humidity;BME280_pressure;Samples;Min_cycle;Max_cycle;Signal;HPM_P1;HPM_P2
2021/12/03 00:01:54;;;;;;;;;;;;;;;1.62;59.90;97310.03;1578650;91;26003;-70
2021/12/03 00:04:21;;;;;;;;;;;;;;;1.61;60.16;97317.08;1579166;91;25746;-70
2021/12/03 00:06:47;;;;;;;;;;;;;;;1.62;60.45;97318.13;1591169;87;27468;-70
2021/12/03 00:09:13;;;;;;;;;;;;;;;1.60;60.53;97325.73;1634808;87;25646;-70
2021/12/03 00:11:39;;;;;;;;;;;;;;;1.62;60.61;97327.59;1634822;87;25514;-70
2021/12/03 00:14:05;;;;;;;;;;;;;;;1.61;60.36;97336.79;1634758;87;25739;-70
2021/12/03 00:16:31;;;;;;;;;;;;;;;1.63;60.42;97341.91;1634863;87;25685;-69
2021/12/03 00:18:58;;;;;;;;;;;;;;;1.62;60.81;97339.73;1634952;87;27434;-70
2021/12/03 00:21:26;;;;;;;;;;;;;;;1.61;60.70;97346.78;1635139;87;25703;-69
2021/12/03 00:23:52;;;;;;;;;;;;;;;1.61;60.86;97344.89;1634732;87;25515;-69
2021/12/03 00:26:18;;;;;;;;;;;;;;;1.59;61.00;97354.38;1634789;87;27850;-69
2021/12/03 00:28:44;;;;;;;;;;;;;;;1.55;60.30;97356.84;1635070;87;25476;-70
2021/12/03 00:31:12;;;;;;;;;;;;;;;1.50;60.29;97367.71;1634706;87;27471;-70
2021/12/03 00:33:38;;;;;;;;;;;;;;;1.53;60.26;97369.02;1634633;87;25713;-69
2021/12/03 00:36:07;;;;;;;;;;;;;;;1.48;60.69;97363.95;1635061;87;25624;-69
2021/12/03 00:38:39;;;;;;;;;;;;;;;1.47;60.72;97366.93;1634967;87;25477;-67
2021/12/03 00:41:06;;;;;;;;;;;;;;;1.44;59.89;97374.25;1634563;87;25656;-68
2021/12/03 00:43:32;;;;;;;;;;;;;;;1.40;60.12;97390.73;1635020;87;28297;-69
2021/12/03 00:46:05;;;;;;;;;;;;;;;1.37;60.29;97396.16;1635004;87;25657;-69
2021/12/03 00:48:27;;;;;;;;;;;;;;;1.32;60.40;97397.02;1634770;87;25517;-70
2021/12/03 00:50:53;;;;;;;;;;;;;;;1.33;60.14;97408.63;1634747;87;27882;-69
2021/12/03 00:53:19;;;;;;;;;;;;;;;1.33;60.55;97416.73;1634762;87;25467;-69
2021/12/03 00:55:45;;;;;;;;;;;;;;;1.31;60.42;97417.01;1634783;87;27478;-69
2021/12/03 00:58:12;;;;;;;;;;;;;;;1.29;60.74;97423.23;1634709;87;25703;-69
2021/12/03 01:00:38;;;;;;;;;;;;;;;1.28;60.61;97422.16;1634769;87;25531;-70
2021/12/03 01:03:04;;;;;;;;;;;;;;;1.24;60.98;97425.42;1634878;87;25686;-68
2021/12/03 01:05:31;;;;;;;;;;;;;;;1.25;60.63;97431.10;1634719;87;25526;-68
2021/12/03 01:07:57;;;;;;;;;;;;;;;1.25;60.77;97431.10;1634713;87;27514;-69
2021/12/03 01:10:25;;;;;;;;;;;;;;;1.21;60.51;97440.83;1634739;87;25831;-69
2021/12/03 01:12:51;;;;;;;;;;;;;;;1.23;60.75;97441.89;1634829;87;25705;-70
2021/12/03 01:15:24;;;;;;;;;;;;;;;1.25;61.05;97445.95;1634773;87;25806;-68
2021/12/03 01:17:50;;;;;;;;;;;;;;;1.28;60.93;97449.97;1635097;87;25486;-69
2021/12/03 01:20:18;;;;;;;;;;;;;;;1.24;60.93;97444.88;1634990;87;27456;-69
2021/12/03 01:22:46;;;;;;;;;;;;;;;1.24;61.30;97443.53;1635053;87;25460;-69
2021/12/03 01:25:14;;;;;;;;;;;;;;;1.17;60.73;97441.67;1634730;87;25633;-70
2021/12/03 01:27:40;;;;;;;;;;;;;;;1.09;61.15;97442.55;1634955;87;25837;-68
2021/12/03 01:30:09;;;;;;;;;;;;;;;1.06;61.03;97437.71;1635072;87;25467;-70
2021/12/03 01:32:37;;;;;;;;;;;;;;;1.05;61.36;97444.20;1635185;87;27961;-68
2021/12/03 01:35:04;;;;;;;;;;;;;;;1.03;61.28;97446.37;1634797;87;25475;-69
2021/12/03 01:37:30;;;;;;;;;;;;;;;0.99;61.06;97449.38;1634783;87;25507;-69
2021/12/03 01:39:56;;;;;;;;;;;;;;;0.88;61.44;97452.67;1634774;87;25825;-70
2021/12/03 01:42:22;;;;;;;;;;;;;;;0.82;61.08;97450.56;1635042;87;25480;-69
2021/12/03 01:44:49;;;;;;;;;;;;;;;0.80;61.40;97448.67;1634802;87;27532;-69
2021/12/03 01:47:15;;;;;;;;;;;;;;;0.72;61.43;97446.02;1634814;87;26033;-69
2021/12/03 01:49:43;;;;;;;;;;;;;;;0.68;61.59;97455.77;1634624;87;25450;-70
2021/12/03 01:52:09;;;;;;;;;;;;;;;0.65;61.79;97452.80;1599495;87;27951;-68
2021/12/03 01:54:35;;;;;;;;;;;;;;;0.61;61.72;97463.36;1635031;87;25712;-68
2021/12/03 01:57:01;;;;;;;;;;;;;;;0.61;61.87;97468.75;1634927;87;27438;-68
2021/12/03 01:59:27;;;;;;;;;;;;;;;0.58;61.93;97472.00;1634598;87;25652;-70
2021/12/03 02:01:54;;;;;;;;;;;;;;;0.54;62.02;97478.48;1634798;87;25535;-70
2021/12/03 02:04:20;;;;;;;;;;;;;;;0.52;62.18;97493.33;1634781;87;25970;-70
2021/12/03 02:06:46;;;;;;;;;;;;;;;0.48;62.17;97500.62;1634687;87;25686;-70
2021/12/03 02:09:12;;;;;;;;;;;;;;;0.44;62.43;97504.14;1634869;87;27500;-69
2021/12/03 02:11:39;;;;;;;;;;;;;;;0.43;62.60;97510.06;1634872;87;25641;-70
2021/12/03 02:14:06;;;;;;;;;;;;;;;0.40;62.73;97507.91;1634924;87;25527;-70
2021/12/03 02:16:32;;;;;;;;;;;;;;;0.36;62.92;97516.30;1634601;87;25814;-70
2021/12/03 02:18:59;;;;;;;;;;;;;;;0.34;63.14;97513.05;1634708;87;25688;-70
2021/12/03 02:21:25;;;;;;;;;;;;;;;0.31;63.17;97517.11;1634767;87;27504;-71
2021/12/03 02:23:52;;;;;;;;;;;;;;;0.27;63.68;97521.98;1634676;87;25712;-68
2021/12/03 02:26:19;;;;;;;;;;;;;;;0.21;63.70;97531.44;1635036;87;25648;-69
2021/12/03 02:28:47;;;;;;;;;;;;;;;0.21;63.57;97533.31;1634948;87;25906;-70
2021/12/03 02:31:15;;;;;;;;;;;;;;;0.19;63.76;97540.33;1634854;87;25443;-68
2021/12/03 02:33:47;;;;;;;;;;;;;;;0.20;63.94;97548.67;1635077;87;27519;-70
2021/12/03 02:36:14;;;;;;;;;;;;;;;0.17;64.10;97551.12;1634666;87;25677;-69
2021/12/03 02:38:41;;;;;;;;;;;;;;;0.10;64.20;97552.20;1634769;87;25531;-69
2021/12/03 02:41:07;;;;;;;;;;;;;;;0.07;64.34;97564.05;1635015;87;25629;-67
2021/12/03 02:43:32;;;;;;;;;;;;;;;0.01;64.61;97563.27;1635042;87;25697;-68
2021/12/03 02:45:58;;;;;;;;;;;;;;;-0.05;64.84;97568.39;1634780;87;28414;-68
2021/12/03 02:48:26;;;;;;;;;;;;;;;-0.05;65.10;97575.94;1634994;87;25729;-70
2021/12/03 02:50:52;;;;;;;;;;;;;;;-0.07;65.22;97587.51;1634650;87;25693;-69
2021/12/03 02:53:18;;;;;;;;;;;;;;;-0.11;65.32;97579.70;1634727;87;25907;-68
2021/12/03 02:55:44;;;;;;;;;;;;;;;-0.09;65.28;97578.09;1634630;87;25764;-69
2021/12/03 02:58:12;;;;;;;;;;;;;;;-0.07;65.25;97578.61;1634767;87;27535;-69
2021/12/03 03:00:39;;;;;;;;;;;;;;;-0.09;65.45;97584.27;1634677;87;25761;-70
2021/12/03 03:03:05;;;;;;;;;;;;;;;-0.13;65.65;97580.50;1634652;87;25476;-69
2021/12/03 03:05:32;;;;;;;;;;;;;;;-0.20;65.89;97586.70;1635012;87;25904;-68
2021/12/03 03:07:58;;;;;;;;;;;;;;;-0.27;66.32;97589.66;1634784;87;25444;-69
2021/12/03 03:10:29;;;;;;;;;;;;;;;-0.33;66.33;97600.97;1634764;87;27483;-68
2021/12/03 03:12:57;;;;;;;;;;;;;;;-0.41;66.73;97598.27;1634769;87;25688;-69
2021/12/03 03:15:23;;;;;;;;;;;;;;;-0.43;66.81;97605.00;1635221;87;25653;-68
2021/12/03 03:17:49;;;;;;;;;;;;;;;-0.45;66.53;97602.58;1634848;87;25737;-69
2021/12/03 03:20:17;;;;;;;;;;;;;;;-0.45;66.92;97607.97;1635049;87;25616;-67
2021/12/03 03:22:43;;;;;;;;;;;;;;;-0.50;67.04;97609.29;1634797;87;27513;-69
2021/12/03 03:25:12;;;;;;;;;;;;;;;-0.54;67.15;97609.03;1635051;87;25728;-67
2021/12/03 03:27:39;;;;;;;;;;;;;;;-0.55;67.19;97618.72;1634825;87;25723;-69
2021/12/03 03:30:09;;;;;;;;;;;;;;;-0.60;67.44;97619.52;1635049;87;25908;-69
2021/12/03 03:32:37;;;;;;;;;;;;;;;-0.61;67.28;97621.13;1635076;87;25499;-68
2021/12/03 03:35:04;;;;;;;;;;;;;;;-0.64;67.27;97623.27;1635064;87;27858;-68
2021/12/03 03:37:30;;;;;;;;;;;;;;;-0.67;67.48;97617.06;1634954;87;25716;-68
2021/12/03 03:39:57;;;;;;;;;;;;;;;-0.70;67.65;97619.47;1635325;87;25677;-68
2021/12/03 03:42:23;;;;;;;;;;;;;;;-0.71;67.81;97621.38;1634941;87;25768;-68
2021/12/03 03:44:49;;;;;;;;;;;;;;;-0.72;67.81;97618.95;1634933;87;25510;-68
2021/12/03 03:47:15;;;;;;;;;;;;;;;-0.72;67.73;97625.67;1634838;87;29629;-68
2021/12/03 03:49:41;;;;;;;;;;;;;;;-0.73;68.09;97631.58;1634998;87;25725;-68
2021/12/03 03:52:08;;;;;;;;;;;;;;;-0.76;68.27;97637.48;1634741;87;25609;-68
2021/12/03 03:54:34;;;;;;;;;;;;;;;-0.76;68.17;97642.88;1634698;87;25807;-68
2021/12/03 03:57:00;;;;;;;;;;;;;;;-0.78;68.45;97643.13;1634729;87;25451;-68
2021/12/03 03:59:27;;;;;;;;;;;;;;;-0.78;68.38;97644.48;1634752;87;27449;-67
2021/12/03 04:01:53;;;;;;;;;;;;;;;-0.79;68.57;97641.52;1634730;87;25713;-69
2021/12/03 04:04:21;;;;;;;;;;;;;;;-0.78;68.19;97646.34;1635001;87;25448;-68
2021/12/03 04:06:48;;;;;;;;;;;;;;;-0.79;68.65;97654.16;1634687;87;25818;-68
2021/12/03 04:09:14;;;;;;;;;;;;;;;-0.81;68.37;97660.36;1634806;87;25661;-69
2021/12/03 04:11:40;;;;;;;;;;;;;;;-0.81;68.58;97659.02;1635069;87;27473;-69
2021/12/03 04:14:05;;;;;;;;;;;;;;;-0.80;68.43;97665.44;1634659;87;25708;-68
2021/12/03 04:16:31;;;;;;;;;;;;;;;-0.80;68.50;97670.83;1634846;87;25486;-69
2021/12/03 04:18:58;;;;;;;;;;;;;;;-0.76;68.44;97675.16;1635166;87;25835;-68
2021/12/03 04:21:24;;;;;;;;;;;;;;;-0.74;68.50;97679.75;1635099;87;25625;-69
2021/12/03 04:23:51;;;;;;;;;;;;;;;-0.70;68.57;97675.97;1634762;87;29611;-69
2021/12/03 04:26:17;;;;;;;;;;;;;;;-0.71;68.76;97679.75;1635022;87;25267;-69
2021/12/03 04:28:43;;;;;;;;;;;;;;;-0.70;68.66;97686.21;1634775;87;25472;-69
2021/12/03 04:31:09;;;;;;;;;;;;;;;-0.67;68.72;97688.90;1635008;87;25727;-69
2021/12/03 04:33:35;;;;;;;;;;;;;;;-0.66;68.79;97685.94;1634986;87;25671;-69
2021/12/03 04:36:01;;;;;;;;;;;;;;;-0.66;68.75;97685.94;1634828;87;27434;-68
2021/12/03 04:38:27;;;;;;;;;;;;;;;-0.64;68.73;97682.47;1634709;87;26033;-69
2021/12/03 04:40:53;;;;;;;;;;;;;;;-0.67;68.84;97699.13;1635158;87;25700;-69
2021/12/03 04:43:19;;;;;;;;;;;;;;;-0.69;69.05;97703.17;1635240;87;25632;-67
2021/12/03 04:45:45;;;;;;;;;;;;;;;-0.73;69.35;97700.19;1634748;87;25527;-68
2021/12/03 04:48:11;;;;;;;;;;;;;;;-0.77;68.97;97709.31;1634707;87;27479;-68
2021/12/03 04:50:39;;;;;;;;;;;;;;;-0.78;69.03;97718.98;1634718;87;25688;-69
2021/12/03 04:53:06;;;;;;;;;;;;;;;-0.79;69.06;97722.23;1634663;87;25455;-68
2021/12/03 04:55:32;;;;;;;;;;;;;;;-0.79;69.36;97725.45;1635104;87;26344;-68
2021/12/03 04:57:58;;;;;;;;;;;;;;;-0.82;69.57;97725.45;1634846;87;25686;-68
2021/12/03 05:00:34;;;;;;;;;;;;;;;-0.83;69.63;97731.09;1634815;87;27477;-68
2021/12/03 05:03:00;;;;;;;;;;;;;;;-0.86;69.92;97728.39;1634742;87;27308;-68
2021/12/03 05:05:32;;;;;;;;;;;;;;;-0.86;69.76;97736.47;1634745;87;25523;-68
2021/12/03 05:07:58;;;;;;;;;;;;;;;-0.86;69.93;97736.98;1636207;87;25705;-68
2021/12/03 05:10:27;;;;;;;;;;;;;;;-0.82;69.87;97744.28;1637353;87;25495;-68
2021/12/03 05:12:56;;;;;;;;;;;;;;;-0.83;70.58;97753.95;1636859;87;27526;-68
2021/12/03 05:15:23;;;;;;;;;;;;;;;-0.81;70.41;97751.27;1636086;87;25653;-68
2021/12/03 05:17:49;;;;;;;;;;;;;;;-0.78;70.72;97751.27;1637467;87;25644;-68
2021/12/03 05:20:15;;;;;;;;;;;;;;;-0.77;70.34;97759.08;1637198;87;25847;-68
2021/12/03 05:22:41;;;;;;;;;;;;;;;-0.70;70.42;97767.45;1637410;87;25641;-68
2021/12/03 05:25:08;;;;;;;;;;;;;;;-0.65;70.18;97774.22;1637532;87;27515;-68
2021/12/03 05:27:34;;;;;;;;;;;;;;;-0.59;70.11;97772.35;1637178;87;25522;-68
2021/12/03 05:30:00;;;;;;;;;;;;;;;-0.59;70.46;97773.70;1637603;87;25758;-68
2021/12/03 05:32:26;;;;;;;;;;;;;;;-0.57;70.37;97779.11;1637345;87;25848;-68
2021/12/03 05:34:52;;;;;;;;;;;;;;;-0.55;70.35;97781.55;1637306;87;25730;-68
2021/12/03 05:37:18;;;;;;;;;;;;;;;-0.53;70.57;97786.11;1637241;87;27462;-68
2021/12/03 05:39:44;;;;;;;;;;;;;;;-0.48;70.16;97790.18;1637274;87;25900;-68
2021/12/03 05:42:10;;;;;;;;;;;;;;;-0.42;70.14;97784.27;1637349;87;25709;-68
2021/12/03 05:44:36;;;;;;;;;;;;;;;-0.38;70.62;97792.09;1637225;87;25768;-68
2021/12/03 05:47:03;;;;;;;;;;;;;;;-0.36;70.20;97808.80;1637587;87;25630;-68
2021/12/03 05:49:30;;;;;;;;;;;;;;;-0.34;70.41;97808.53;1637461;87;28349;-69
2021/12/03 05:51:56;;;;;;;;;;;;;;;-0.34;70.44;97809.88;1637259;87;25526;-68
2021/12/03 05:54:23;;;;;;;;;;;;;;;-0.33;70.36;97814.19;1637273;87;25500;-68
2021/12/03 05:56:49;;;;;;;;;;;;;;;-0.32;70.21;97811.79;1637191;87;25751;-69
2021/12/03 05:59:14;;;;;;;;;;;;;;;-0.31;70.05;97818.26;1637286;87;25728;-68
2021/12/03 06:01:41;;;;;;;;;;;;;;;-0.31;70.24;97818.78;1614815;87;27474;-68
2021/12/03 06:04:07;;;;;;;;;;;;;;;-0.32;70.17;97823.34;1637252;87;25979;-68
2021/12/03 06:06:33;;;;;;;;;;;;;;;-0.31;70.17;97822.82;1637363;87;25515;-68
2021/12/03 06:08:59;;;;;;;;;;;;;;;-0.31;70.27;97835.76;1637288;87;25785;-68
2021/12/03 06:11:26;;;;;;;;;;;;;;;-0.29;70.41;97841.67;1637253;87;25475;-68
2021/12/03 06:13:52;;;;;;;;;;;;;;;-0.27;70.49;97830.64;1637219;87;27448;-68
2021/12/03 06:16:19;;;;;;;;;;;;;;;-0.29;70.36;97830.11;1637072;87;25684;-68
2021/12/03 06:18:45;;;;;;;;;;;;;;;-0.34;70.45;97845.70;1637326;87;25717;-68
2021/12/03 06:21:12;;;;;;;;;;;;;;;-0.37;70.51;97850.27;1637247;87;25834;-68
2021/12/03 06:23:39;;;;;;;;;;;;;;;-0.39;70.54;97845.14;1637277;87;25507;-68
2021/12/03 06:26:06;;;;;;;;;;;;;;;-0.41;70.76;97849.15;1637214;87;27518;-68
2021/12/03 06:28:33;;;;;;;;;;;;;;;-0.42;70.91;97857.78;1637260;87;25686;-68
2021/12/03 06:30:59;;;;;;;;;;;;;;;-0.40;70.95;97864.25;1637333;87;25660;-68
2021/12/03 06:33:25;;;;;;;;;;;;;;;-0.40;71.10;97867.73;1637629;87;26147;-68
2021/12/03 06:35:51;;;;;;;;;;;;;;;-0.40;71.00;97875.02;1637287;87;25690;-68
2021/12/03 06:38:17;;;;;;;;;;;;;;;-0.42;70.81;97872.58;1637465;87;27889;-68
2021/12/03 06:40:44;;;;;;;;;;;;;;;-0.40;70.75;97873.67;1637101;87;25716;-67
2021/12/03 06:43:10;;;;;;;;;;;;;;;-0.40;70.59;97885.23;1637370;87;25826;-68
2021/12/03 06:45:37;;;;;;;;;;;;;;;-0.38;70.84;97883.63;1637432;87;25903;-67
2021/12/03 06:48:04;;;;;;;;;;;;;;;-0.35;70.57;97883.10;1637473;87;25636;-67
2021/12/03 06:50:32;;;;;;;;;;;;;;;-0.32;70.76;97892.00;1637486;87;27961;-68
2021/12/03 06:53:06;;;;;;;;;;;;;;;-0.29;70.95;97898.77;1637525;87;25696;-68
2021/12/03 06:55:28;;;;;;;;;;;;;;;-0.29;71.06;97903.60;1637090;87;25696;-67
2021/12/03 06:57:54;;;;;;;;;;;;;;;-0.24;70.80;97904.69;1637453;87;26195;-67
2021/12/03 07:00:20;;;;;;;;;;;;;;;-0.19;70.86;97911.47;1637636;87;25490;-68
2021/12/03 07:02:46;;;;;;;;;;;;;;;-0.20;70.65;97914.68;1637499;87;27934;-67
2021/12/03 07:05:14;;;;;;;;;;;;;;;-0.15;70.66;97913.90;1637459;87;26163;-67
2021/12/03 07:07:41;;;;;;;;;;;;;;;-0.13;70.73;97911.77;1637415;87;25677;-67
2021/12/03 07:10:08;;;;;;;;;;;;;;;-0.08;70.94;97912.33;1637416;87;26597;-68
2021/12/03 07:12:35;;;;;;;;;;;;;;;-0.07;70.75;97922.84;1637284;87;25503;-68
2021/12/03 07:15:01;;;;;;;;;;;;;;;-0.06;70.83;97929.84;1637507;87;27585;-67
2021/12/03 07:17:32;;;;;;;;;;;;;;;-0.06;70.68;97930.40;1637395;87;26346;-68
2021/12/03 07:19:57;;;;;;;;;;;;;;;-0.04;70.80;97934.97;1637152;87;25662;-68
2021/12/03 07:22:22;;;;;;;;;;;;;;;-0.01;70.77;97935.27;1637581;87;25625;-68
2021/12/03 07:24:49;;;;;;;;;;;;;;;0.01;70.55;97941.73;1637537;87;25480;-68
2021/12/03 07:27:15;;;;;;;;;;;;;;;0.06;70.66;97949.83;1637634;87;27411;-67
2021/12/03 07:29:42;;;;;;;;;;;;;;;0.10;70.74;97951.47;1637675;87;25976;-68
2021/12/03 07:32:08;;;;;;;;;;;;;;;0.12;71.05;97961.46;1637351;87;25839;-68
2021/12/03 07:34:34;;;;;;;;;;;;;;;0.12;70.68;97962.25;1637539;87;26035;-68
2021/12/03 07:37:00;;;;;;;;;;;;;;;0.14;70.82;97961.99;1637462;87;25587;-68
2021/12/03 07:39:26;;;;;;;;;;;;;;;0.20;70.59;97966.89;1637566;87;27241;-68
2021/12/03 07:41:52;;;;;;;;;;;;;;;0.22;70.73;97974.98;1637447;87;26304;-68
2021/12/03 07:44:18;;;;;;;;;;;;;;;0.26;70.45;97970.41;1637635;87;25476;-68
2021/12/03 07:46:44;;;;;;;;;;;;;;;0.28;70.37;97974.98;1637415;87;26202;-68
2021/12/03 07:49:10;;;;;;;;;;;;;;;0.32;70.49;97982.28;1637657;87;25513;-67
2021/12/03 07:51:36;;;;;;;;;;;;;;;0.36;70.43;97985.27;1637673;87;28057;-67
2021/12/03 07:54:02;;;;;;;;;;;;;;;0.40;70.48;97986.91;1637289;87;25661;-68
2021/12/03 07:56:28;;;;;;;;;;;;;;;0.49;70.37;97986.13;1637506;87;25629;-67
2021/12/03 07:58:54;;;;;;;;;;;;;;;0.55;69.83;97991.00;1637641;87;26258;-67
2021/12/03 08:01:20;;;;;;;;;;;;;;;0.58;69.61;97991.02;1637453;87;25724;-67
2021/12/03 08:03:46;;;;;;;;;;;;;;;0.58;69.97;98000.46;1637622;87;28320;-67
2021/12/03 08:06:13;;;;;;;;;;;;;;;0.62;69.74;98004.24;1637577;87;25744;-67
2021/12/03 08:08:40;;;;;;;;;;;;;;;0.61;69.90;98002.08;1637412;87;25946;-67
2021/12/03 08:11:06;;;;;;;;;;;;;;;0.67;69.60;98006.97;1637760;87;25899;-67
2021/12/03 08:13:33;;;;;;;;;;;;;;;0.63;68.54;98008.55;1638024;87;25654;-67
2021/12/03 08:16:00;;;;;;;;;;;;;;;0.56;68.03;98011.52;1637937;87;28276;-67
2021/12/03 08:18:26;;;;;;;;;;;;;;;0.53;68.08;98016.08;1637884;87;25790;-67
2021/12/03 08:20:53;;;;;;;;;;;;;;;0.54;68.06;98023.09;1637928;87;25651;-67
2021/12/03 08:23:19;;;;;;;;;;;;;;;0.54;68.03;98028.48;1637870;87;26135;-67
2021/12/03 08:25:46;;;;;;;;;;;;;;;0.59;67.70;98032.56;1637950;87;25490;-67
2021/12/03 08:28:12;;;;;;;;;;;;;;;0.62;67.73;98044.16;1638090;87;27292;-67
2021/12/03 08:30:39;;;;;;;;;;;;;;;0.60;67.68;98047.66;1638199;87;25583;-68
2021/12/03 08:33:05;;;;;;;;;;;;;;;0.62;68.01;98046.86;1637976;87;25682;-68
2021/12/03 08:35:31;;;;;;;;;;;;;;;0.67;67.89;98051.47;1637827;87;25611;-68
2021/12/03 08:37:57;;;;;;;;;;;;;;;0.72;67.39;98054.17;1637950;87;25755;-69
2021/12/03 08:40:24;;;;;;;;;;;;;;;0.77;67.36;98056.63;1638011;87;28168;-68
2021/12/03 08:42:51;;;;;;;;;;;;;;;0.77;66.78;98052.59;1634275;87;25473;-68
2021/12/03 08:45:20;;;;;;;;;;;;;;;0.75;66.00;98063.08;1637568;87;25712;-69
2021/12/03 08:47:50;;;;;;;;;;;;;;;0.73;66.29;98063.91;1635111;87;26863;-68
2021/12/03 08:50:19;;;;;;;;;;;;;;;0.71;66.72;98069.27;1634565;87;25776;-68
2021/12/03 08:53:10;;;;;;;;;;;;;;;0.74;66.46;98067.39;1637756;87;27015;-69
2021/12/03 08:55:32;;;;;;;;;;;;;;;0.75;66.64;98075.78;1637770;87;25422;-69
2021/12/03 08:57:58;;;;;;;;;;;;;;;0.74;66.52;98075.48;1637648;87;25699;-68
2021/12/03 09:00:25;;;;;;;;;;;;;;;0.76;66.38;98073.34;1637862;87;25745;-68
2021/12/03 09:02:52;;;;;;;;;;;;;;;0.75;66.74;98071.73;1637754;87;25433;-68
2021/12/03 09:05:18;;;;;;;;;;;;;;;0.85;66.61;98082.55;1637522;87;27643;-68
2021/12/03 09:07:45;;;;;;;;;;;;;;;1.11;66.72;98078.59;1637778;87;25677;-68
2021/12/03 09:10:13;;;;;;;;;;;;;;;1.37;65.94;98088.63;1635831;87;25524;-68
2021/12/03 09:12:41;;;;;;;;;;;;;;;1.68;64.74;98082.45;1635562;87;25736;-68
2021/12/03 09:15:11;;;;;;;;;;;;;;;2.00;65.13;98082.73;1636075;87;25485;-68
2021/12/03 09:20:40;;;;;;;;;;;;;;;2.55;62.90;98085.33;1634537;87;26075;-68
2021/12/03 09:23:14;;;;;;;;;;;;;;;3.17;62.74;98083.75;1633585;87;25797;-68
2021/12/03 09:25:36;;;;;;;;;;;;;;;3.69;62.03;98086.14;1633844;87;25619;-65
2021/12/03 09:28:05;;;;;;;;;;;;;;;4.11;60.38;98082.53;1635406;87;25765;-66
2021/12/03 09:30:37;;;;;;;;;;;;;;;4.42;59.08;98089.57;1635524;87;26082;-66
2021/12/03 09:33:06;;;;;;;;;;;;;;;4.79;58.39;98086.45;1633108;87;25481;-67
2021/12/03 09:35:35;;;;;;;;;;;;;;;5.11;57.68;98089.88;1635865;87;25736;-67
2021/12/03 09:38:01;;;;;;;;;;;;;;;5.30;56.04;98086.38;1632752;87;25473;-66
2021/12/03 09:40:30;;;;;;;;;;;;;;;5.39;55.27;98085.16;1637152;87;25507;-67
2021/12/03 09:42:56;;;;;;;;;;;;;;;5.71;56.58;98082.25;1636717;87;27161;-67
2021/12/03 09:45:23;;;;;;;;;;;;;;;6.06;52.99;98072.47;1636991;87;25663;-67
2021/12/03 09:47:51;;;;;;;;;;;;;;;6.18;52.12;98080.69;1636882;87;25493;-67
2021/12/03 09:50:18;;;;;;;;;;;;;;;6.58;54.07;98075.63;1637018;87;25620;-67
2021/12/03 09:53:02;;;;;;;;;;;;;;;7.05;53.03;98080.14;1637249;87;25613;-66
2021/12/03 09:55:14;;;;;;;;;;;;;;;7.42;52.13;98074.72;1633193;87;27163;-66
2021/12/03 10:01:16;;;;;;;;;;;;;;;8.18;52.34;98056.02;1636813;87;25442;-66
2021/12/03 10:13:56;;;;;;;;;;;;;;;8.78;47.12;98062.66;1636830;87;25450;-66
2021/12/03 10:18:56;;;;;;;;;;;;;;;9.33;45.43;98063.81;1636869;87;25639;-65
2021/12/03 10:30:56;;;;;;;;;;;;;;;9.95;43.40;98067.34;1636756;87;25438;-66
2021/12/03 10:33:40;;;;;;;;;;;;;;;9.94;42.65;98060.81;1633330;87;25688;-66
2021/12/03 10:43:55;;;;;;;;;;;;;;;10.50;43.09;98058.68;1636663;87;25610;-66
2021/12/03 10:57:16;;;;;;;;;;;;;;;10.77;38.40;98047.84;1636683;87;25572;-65
2021/12/03 11:03:00;;;;;;;;;;;;;;;10.74;38.79;98051.25;1637140;87;26804;-66
2021/12/03 11:36:09;;;;;;;;;;;;;;;11.08;35.42;98043.75;1572216;91;25590;-66
2021/12/03 11:56:40;;;;;;;;;;;;;;;10.76;35.41;98046.25;1567759;91;25744;-66
2021/12/03 12:22:06;;;;;;;;;;;;;;;10.95;34.09;98041.47;1548492;92;25463;-66
2021/12/03 13:25:15;;;;;;;;;;;;;;;10.41;33.28;98086.89;1573877;91;25527;-66
2021/12/03 13:33:12;;;;;;;;;;;;;;;9.84;34.39;98086.02;1569292;91;25732;-66
2021/12/03 14:14:08;;;;;;;;;;;;;;;3.75;43.44;98115.36;1506467;95;25888;-68
2021/12/03 14:37:42;;;;;;;;;;;;;;;2.10;49.83;98129.23;1514380;94;25774;-67
2021/12/03 14:48:29;;;;;;;;;;;;;;;1.59;49.77;98135.67;1538003;92;25676;-68
2021/12/03 14:53:41;;;;;;;;;;;;;;;1.42;49.61;98141.30;1547076;92;25470;-66
2021/12/03 14:56:09;;;;;;;;;;;;;;;1.33;49.94;98143.72;1546742;92;27102;-67
2021/12/03 15:04:12;;;;;;;;;;;;;;;1.05;51.11;98155.21;1547004;92;25520;-66
2021/12/03 15:06:17;;;;;;;;;;;;;;;0.97;51.01;98156.52;1542558;92;25532;-67
2021/12/03 15:08:52;;;;;;;;;;;;;;;0.90;51.61;98160.53;1546100;92;26051;-67
2021/12/03 15:15:17;;;;;;;;;;;;;;;0.75;52.12;98164.23;1547465;92;25726;-68
2021/12/03 15:22:14;;;;;;;;;;;;;;;0.55;53.19;98165.47;1563051;91;27614;-68
2021/12/03 15:27:27;;;;;;;;;;;;;;;0.45;53.61;98162.16;1549031;92;25753;-68
2021/12/03 15:30:04;;;;;;;;;;;;;;;0.39;53.69;98154.58;1563079;90;25402;-68
2021/12/03 15:32:33;;;;;;;;;;;;;;;0.31;54.29;98163.13;1543665;93;25767;-68
2021/12/03 15:35:08;;;;;;;;;;;;;;;0.27;54.37;98160.68;1544379;93;26850;-68
2021/12/03 16:04:47;;;;;;;;;;;;;;;-0.21;57.23;98190.98;1550905;91;25727;-69
2021/12/03 16:12:45;;;;;;;;;;;;;;;-0.31;57.25;98201.95;1555211;91;25763;-69
2021/12/03 16:44:42;;;;;;;;;;;;;;;-0.62;59.50;98219.09;1568177;91;25740;-69
2021/12/03 16:47:20;;;;;;;;;;;;;;;-0.61;58.82;98215.33;1567377;91;26004;-68
2021/12/03 16:52:30;;;;;;;;;;;;;;;-0.61;59.07;98222.61;1568373;91;25768;-69
2021/12/03 16:54:56;;;;;;;;;;;;;;;-0.67;60.28;98218.50;1567873;91;25977;-69
2021/12/03 16:57:18;;;;;;;;;;;;;;;-0.66;60.49;98214.73;1567831;91;26411;-69
2021/12/03 16:59:46;;;;;;;;;;;;;;;-0.68;60.34;98217.41;1568523;91;25774;-69
2021/12/03 17:02:24;;;;;;;;;;;;;;;-0.68;60.53;98221.44;1568406;91;26309;-69
2021/12/03 17:04:58;;;;;;;;;;;;;;;-0.71;60.83;98220.59;1568217;91;25785;-68
2021/12/03 17:15:24;;;;;;;;;;;;;;;-0.77;61.11;98220.52;1568476;91;25679;-67
2021/12/03 17:23:32;;;;;;;;;;;;;;;-0.82;60.91;98219.65;1568143;91;25769;-68
2021/12/03 17:44:39;;;;;;;;;;;;;;;-0.97;61.86;98232.37;1544211;93;25730;-68
2021/12/03 17:49:40;;;;;;;;;;;;;;;-1.01;62.14;98236.90;1544188;93;25816;-68
2021/12/03 17:58:00;;;;;;;;;;;;;;;-1.06;62.85;98243.54;1544153;93;26345;-68
2021/12/03 17:59:45;;;;;;;;;;;;;;;-1.04;62.12;98248.67;1541612;93;26948;-68
2021/12/03 18:07:38;;;;;;;;;;;;;;;-1.07;62.76;98225.78;1545226;93;25751;-68
2021/12/03 18:45:38;;;;;;;;;;;;;;;-1.04;61.30;98206.98;1545243;93;25536;-68
2021/12/03 18:55:54;;;;;;;;;;;;;;;-1.01;60.72;98211.87;1545415;93;25816;-68
2021/12/03 18:58:23;;;;;;;;;;;;;;;-1.02;60.61;98211.59;1545141;92;25654;-68
2021/12/03 19:00:48;;;;;;;;;;;;;;;-1.04;60.70;98206.98;1545342;92;25512;-68
2021/12/03 19:06:06;;;;;;;;;;;;;;;-1.04;60.37;98211.02;1521434;94;26770;-68
2021/12/03 19:08:49;;;;;;;;;;;;;;;-1.04;60.22;98208.33;1543806;93;25486;-68
2021/12/03 19:11:19;;;;;;;;;;;;;;;-1.04;59.98;98202.95;1545107;92;25648;-68
2021/12/03 19:13:41;;;;;;;;;;;;;;;-1.01;59.72;98194.39;1545056;92;25481;-68
2021/12/03 19:16:11;;;;;;;;;;;;;;;-0.99;59.53;98200.86;1545136;93;25756;-68
2021/12/03 19:18:40;;;;;;;;;;;;;;;-0.98;59.49;98199.81;1545356;92;26797;-68
2021/12/03 19:21:11;;;;;;;;;;;;;;;-0.98;59.30;98201.95;1545156;92;25521;-68
2021/12/03 19:23:35;;;;;;;;;;;;;;;-0.96;58.98;98203.05;1545106;92;25702;-68
2021/12/03 19:26:01;;;;;;;;;;;;;;;-0.94;58.95;98209.01;1545174;92;26123;-68
2021/12/03 19:28:31;;;;;;;;;;;;;;;-0.93;58.86;98203.91;1545391;92;25626;-68
2021/12/03 19:30:57;;;;;;;;;;;;;;;-0.93;58.89;98206.07;1545031;92;26028;-68
2021/12/03 19:33:24;;;;;;;;;;;;;;;-0.93;58.60;98208.76;1545279;92;25718;-68
2021/12/03 19:35:51;;;;;;;;;;;;;;;-0.92;58.29;98210.37;1545034;92;25500;-68
2021/12/03 19:38:18;;;;;;;;;;;;;;;-0.88;58.52;98206.67;1545221;92;25908;-69
2021/12/03 19:41:36;;;;;;;;;;;;;;;-0.87;58.47;98204.80;1545297;92;25514;-69
2021/12/03 19:43:17;;;;;;;;;;;;;;;-0.88;58.18;98201.29;1535494;93;26873;-69
2021/12/03 19:45:51;;;;;;;;;;;;;;;-0.85;58.20;98195.93;1544729;93;25545;-69
2021/12/03 19:48:14;;;;;;;;;;;;;;;-0.82;58.16;98197.60;1545003;92;25768;-69
2021/12/03 19:50:47;;;;;;;;;;;;;;;-0.79;58.36;98198.45;1520496;93;25786;-69
2021/12/03 19:53:16;;;;;;;;;;;;;;;-0.75;58.37;98201.44;1544496;92;25742;-69
2021/12/03 19:55:42;;;;;;;;;;;;;;;-0.73;58.53;98192.59;1545291;92;26792;-69
2021/12/03 19:58:11;;;;;;;;;;;;;;;-0.70;58.37;98192.09;1545167;92;25755;-69
2021/12/03 20:00:38;;;;;;;;;;;;;;;-0.67;58.45;98195.63;1545745;92;25802;-69
2021/12/03 20:03:04;;;;;;;;;;;;;;;-0.64;58.12;98186.23;1545495;93;26506;-68